createdAt,value
2022-08-10T00:00:23.849Z,96599.00
2022-08-10T00:02:57.441Z,96605.00
2022-08-10T00:05:25.975Z,96601.00
2022-08-10T00:07:54.287Z,96603.00
2022-08-10T00:10:24.317Z,96600.00
2022-08-10T00:12:53.473Z,96608.00
2022-08-10T00:18:35.196Z,96599.00
2022-08-10T00:21:08.921Z,96595.00
2022-08-10T00:23:55.892Z,96586.00
2022-08-10T00:26:22.969Z,96593.00
2022-08-10T00:28:50.062Z,96598.00
2022-08-10T00:31:17.297Z,96594.00
2022-08-10T00:33:44.321Z,96593.00
2022-08-10T00:36:21.586Z,96584.00
2022-08-10T00:38:48.658Z,96585.00
2022-08-10T00:41:16.083Z,96603.00
2022-08-10T00:43:46.379Z,96589.00
2022-08-10T00:46:28.527Z,96585.00
2022-08-10T00:49:00.101Z,96596.00
2022-08-10T00:51:43.087Z,96589.00
2022-08-10T00:54:24.037Z,96590.00
2022-08-10T00:57:16.737Z,96590.00
2022-08-10T00:59:58.936Z,96587.00
2022-08-10T01:02:33.052Z,96587.00
2022-08-10T01:05:05.572Z,96593.00
2022-08-10T01:07:51.351Z,96588.00
2022-08-10T01:10:29.061Z,96584.00
2022-08-10T01:13:29.399Z,96586.00
2022-08-10T01:16:37.540Z,96585.00
2022-08-10T01:19:29.201Z,96586.00
2022-08-10T01:22:18.373Z,96591.00
2022-08-10T01:25:09.595Z,96577.00
2022-08-10T01:28:10.067Z,96585.00
2022-08-10T01:30:39.237Z,96578.00
2022-08-10T01:33:17.535Z,96587.00
2022-08-10T01:35:56.520Z,96579.00
2022-08-10T01:38:37.755Z,96579.00
2022-08-10T01:41:45.701Z,96571.00
2022-08-10T01:44:25.652Z,96573.00
2022-08-10T01:47:22.384Z,96573.00
2022-08-10T01:49:56.328Z,96569.00
2022-08-10T01:52:26.565Z,96577.00
2022-08-10T01:54:56.787Z,96566.00
2022-08-10T01:57:27.804Z,96571.00
2022-08-10T02:00:02.195Z,96575.00
2022-08-10T02:02:36.381Z,96579.00
2022-08-10T02:05:05.987Z,96571.00
2022-08-10T02:07:37.348Z,96578.00
2022-08-10T02:10:12.020Z,96574.00
2022-08-10T02:12:41.830Z,96582.00
2022-08-10T02:15:17.242Z,96569.00
2022-08-10T02:17:58.210Z,96575.00
2022-08-10T02:20:58.198Z,96569.00
2022-08-10T02:23:29.618Z,96571.00
2022-08-10T02:26:00.879Z,96569.00
2022-08-10T02:28:32.271Z,96570.00
2022-08-10T02:31:11.995Z,96568.00
2022-08-10T02:33:56.754Z,96570.00
2022-08-10T02:36:30.332Z,96561.00
2022-08-10T02:39:02.089Z,96557.00
2022-08-10T02:45:14.973Z,96563.00
2022-08-10T02:45:26.921Z,96570.00
2022-08-10T02:48:00.426Z,96560.00
2022-08-10T02:50:37.531Z,96556.00
2022-08-10T02:53:04.645Z,96558.00
2022-08-10T02:56:09.729Z,96552.00
2022-08-10T02:58:50.427Z,96562.00
2022-08-10T03:01:22.077Z,96553.00
2022-08-10T03:03:59.289Z,96550.00
2022-08-10T03:06:43.831Z,96552.00
2022-08-10T03:09:15.284Z,96560.00
2022-08-10T03:12:35.897Z,96552.00
2022-08-10T03:14:34.439Z,96561.00
2022-08-10T03:17:03.035Z,96562.00
2022-08-10T03:20:04.671Z,96560.00
2022-08-10T03:22:21.751Z,96556.00
2022-08-10T03:24:50.183Z,96557.00
2022-08-10T03:27:18.091Z,96552.00
2022-08-10T03:30:31.665Z,96546.00
2022-08-10T03:32:34.127Z,96551.00
2022-08-10T03:35:01.884Z,96560.00
2022-08-10T03:37:28.965Z,96556.00
2022-08-10T03:39:56.299Z,96553.00
2022-08-10T03:42:26.961Z,96557.00
2022-08-10T03:44:56.343Z,96554.00
2022-08-10T03:47:23.892Z,96558.00
2022-08-10T03:49:52.612Z,96560.00
2022-08-10T03:52:20.877Z,96554.00
2022-08-10T03:54:51.599Z,96560.00
2022-08-10T03:57:19.884Z,96555.00
2022-08-10T03:59:47.428Z,96555.00
2022-08-10T04:02:52.644Z,96556.00
2022-08-10T04:05:02.133Z,96557.00
2022-08-10T04:07:31.434Z,96560.00
2022-08-10T04:09:58.903Z,96564.00
2022-08-10T04:12:26.151Z,96560.00
2022-08-10T04:14:53.850Z,96567.00
2022-08-10T04:17:56.991Z,96568.00
2022-08-10T04:20:29.894Z,96567.00
2022-08-10T04:23:09.821Z,96571.00
2022-08-10T04:25:40.050Z,96576.00
2022-08-10T04:28:08.905Z,96567.00
2022-08-10T04:30:36.997Z,96568.00
2022-08-10T04:33:07.134Z,96575.00
2022-08-10T04:35:35.329Z,96575.00
2022-08-10T04:38:04.330Z,96580.00
2022-08-10T04:40:32.191Z,96571.00
2022-08-10T04:43:07.450Z,96574.00
2022-08-10T04:45:49.751Z,96575.00
2022-08-10T04:48:40.806Z,96567.00
2022-08-10T04:51:15.245Z,96566.00
2022-08-10T04:54:04.777Z,96570.00
2022-08-10T04:56:39.036Z,96570.00
2022-08-10T04:59:08.642Z,96576.00
2022-08-10T05:02:22.640Z,96574.00
2022-08-10T05:04:35.021Z,96573.00
2022-08-10T05:07:15.905Z,96571.00
2022-08-10T05:10:04.909Z,96578.00
2022-08-10T05:12:38.919Z,96576.00
2022-08-10T05:15:14.696Z,96584.00
2022-08-10T05:18:03.212Z,96577.00
2022-08-10T05:20:30.415Z,96590.00
2022-08-10T05:22:57.542Z,96580.00
2022-08-10T05:25:24.803Z,96575.00
2022-08-10T05:27:52.580Z,96585.00
2022-08-10T05:30:22.333Z,96587.00
2022-08-10T05:32:57.138Z,96590.00
2022-08-10T05:35:51.849Z,96600.00
2022-08-10T05:38:17.027Z,96592.00
2022-08-10T05:40:46.974Z,96586.00
2022-08-10T05:43:20.711Z,96586.00
2022-08-10T05:46:16.660Z,96590.00
2022-08-10T05:48:57.500Z,96587.00
2022-08-10T05:51:27.779Z,96590.00
2022-08-10T05:54:04.300Z,96586.00
2022-08-10T05:56:56.491Z,96588.00
2022-08-10T06:00:33.271Z,96586.00
2022-08-10T06:02:41.899Z,96588.00
2022-08-10T06:05:23.760Z,96581.00
2022-08-10T06:08:11.848Z,96581.00
2022-08-10T06:12:26.172Z,96576.00
2022-08-10T06:14:12.733Z,96577.00
2022-08-10T06:16:36.116Z,96579.00
2022-08-10T06:19:04.178Z,96580.00
2022-08-10T06:21:33.402Z,96575.00
2022-08-10T06:24:02.931Z,96575.00
2022-08-10T06:26:30.053Z,96579.00
2022-08-10T06:29:08.180Z,96582.00
2022-08-10T06:31:49.949Z,96583.00
2022-08-10T06:34:42.942Z,96580.00
2022-08-10T06:37:13.038Z,96574.00
2022-08-10T06:39:40.166Z,96575.00
2022-08-10T06:42:18.646Z,96573.00
2022-08-10T06:45:01.376Z,96573.00
2022-08-10T06:47:39.207Z,96577.00
2022-08-10T06:50:35.087Z,96582.00
2022-08-10T06:53:17.411Z,96581.00
2022-08-10T06:55:59.686Z,96580.00
2022-08-10T06:58:56.728Z,96580.00
2022-08-10T07:01:31.157Z,96575.00
2022-08-10T07:04:32.514Z,96582.00
2022-08-10T07:07:04.870Z,96575.00
2022-08-10T07:09:36.740Z,96582.00
2022-08-10T07:12:09.522Z,96580.00
2022-08-10T07:14:56.308Z,96574.00
2022-08-10T07:17:27.119Z,96577.00
2022-08-10T07:19:59.562Z,96574.00
2022-08-10T07:23:08.613Z,96579.00
2022-08-10T07:25:26.718Z,96580.00
2022-08-10T07:28:00.859Z,96579.00
2022-08-10T07:30:32.895Z,96570.00
2022-08-10T07:33:02.714Z,96573.00
2022-08-10T07:35:41.403Z,96579.00
2022-08-10T07:38:27.126Z,96580.00
2022-08-10T07:40:55.091Z,96571.00
2022-08-10T07:43:27.543Z,96576.00
2022-08-10T07:45:56.951Z,96577.00
2022-08-10T07:48:28.957Z,96582.00
2022-08-10T07:51:00.156Z,96573.00
2022-08-10T07:53:32.937Z,96576.00
2022-08-10T07:56:16.535Z,96577.00
2022-08-10T07:58:59.524Z,96578.00
2022-08-10T08:01:32.656Z,96583.00
2022-08-10T08:04:05.625Z,96579.00
2022-08-10T08:06:41.914Z,96579.00
2022-08-10T08:09:11.055Z,96570.00
2022-08-10T08:11:43.892Z,96573.00
2022-08-10T08:14:11.866Z,96573.00
2022-08-10T08:16:42.963Z,96568.00
2022-08-10T08:19:33.631Z,96570.00
2022-08-10T08:24:10.980Z,96572.00
2022-08-10T08:24:48.135Z,96571.00
2022-08-10T08:27:21.365Z,96575.00
2022-08-10T08:29:51.204Z,96582.00
2022-08-10T08:32:31.886Z,96573.00
2022-08-10T08:35:09.154Z,96576.00
2022-08-10T08:38:29.212Z,96578.00
2022-08-10T08:40:33.722Z,96580.00
2022-08-10T08:43:28.432Z,96576.00
2022-08-10T08:46:28.448Z,96577.00
2022-08-10T08:50:04.395Z,96572.00
2022-08-10T08:53:02.578Z,96581.00
2022-08-10T08:55:55.155Z,96570.00
2022-08-10T08:58:53.461Z,96572.00
2022-08-10T09:01:38.290Z,96568.00
2022-08-10T09:04:40.893Z,96567.00
2022-08-10T09:07:59.980Z,96575.00
2022-08-10T09:10:37.493Z,96577.00
2022-08-10T09:13:26.844Z,96568.00
2022-08-10T09:16:28.498Z,96570.00
2022-08-10T09:19:35.434Z,96562.00
2022-08-10T09:23:11.697Z,96568.00
2022-08-10T09:25:51.269Z,96569.00
2022-08-10T09:28:34.675Z,96564.00
2022-08-10T09:31:23.387Z,96566.00
2022-08-10T09:36:19.321Z,96553.00
2022-08-10T09:37:24.056Z,96555.00
2022-08-10T09:41:00.849Z,96553.00
2022-08-10T09:43:41.498Z,96552.00
2022-08-10T09:46:14.385Z,96561.00
2022-08-10T09:50:04.473Z,96560.00
2022-08-10T09:53:10.305Z,96554.00
2022-08-10T09:56:19.142Z,96547.00
2022-08-10T09:59:27.162Z,96555.00
2022-08-10T10:02:14.534Z,96551.00
2022-08-10T10:05:07.446Z,96552.00
2022-08-10T10:07:39.906Z,96557.00
2022-08-10T10:10:17.350Z,96550.00
2022-08-10T10:13:09.616Z,96540.00
2022-08-10T10:16:06.326Z,96543.00
2022-08-10T10:18:53.492Z,96542.00
2022-08-10T10:21:55.119Z,96541.00
2022-08-10T10:24:47.887Z,96547.00
2022-08-10T10:27:48.552Z,96538.00
2022-08-10T10:30:17.603Z,96540.00
2022-08-10T10:33:14.636Z,96541.00
2022-08-10T10:35:53.027Z,96546.00
2022-08-10T10:38:26.895Z,96542.00
2022-08-10T10:42:03.858Z,96536.00
2022-08-10T10:45:15.387Z,96546.00
2022-08-10T10:48:17.708Z,96540.00
2022-08-10T10:51:13.139Z,96531.00
2022-08-10T10:53:48.055Z,96536.00
2022-08-10T10:56:28.385Z,96530.00
2022-08-10T10:59:54.895Z,96535.00
2022-08-10T11:03:01.784Z,96539.00
2022-08-10T11:05:40.826Z,96524.00
2022-08-10T11:08:16.287Z,96520.00
2022-08-10T11:11:03.147Z,96520.00
2022-08-10T11:14:25.672Z,96512.00
2022-08-10T11:17:00.332Z,96517.00
2022-08-10T11:20:00.200Z,96519.00
2022-08-10T11:22:47.149Z,96526.00
2022-08-10T11:25:46.613Z,96521.00
2022-08-10T11:28:38.265Z,96512.00
2022-08-10T11:31:29.125Z,96513.00
2022-08-10T11:34:49.234Z,96505.00
2022-08-10T11:37:25.910Z,96520.00
2022-08-10T11:40:00.811Z,96516.00
2022-08-10T11:42:59.693Z,96515.00
2022-08-10T11:45:35.184Z,96507.00
2022-08-10T11:48:53.179Z,96533.00
2022-08-10T11:51:21.907Z,96509.00
2022-08-10T11:54:34.020Z,96506.00
2022-08-10T11:57:02.843Z,96508.00
2022-08-10T11:59:57.888Z,96512.00
2022-08-10T12:02:31.401Z,96512.00
2022-08-10T12:05:11.178Z,96504.00
2022-08-10T12:10:02.625Z,96516.00
2022-08-10T12:10:42.812Z,96503.00
2022-08-10T12:13:22.786Z,96505.00
2022-08-10T12:16:08.064Z,96500.00
2022-08-10T12:18:56.383Z,96487.00
2022-08-10T12:21:30.417Z,96504.00
2022-08-10T12:24:10.077Z,96501.00
2022-08-10T12:27:07.222Z,96493.00
2022-08-10T12:30:22.191Z,96499.00
2022-08-10T12:33:03.418Z,96501.00
2022-08-10T12:35:37.702Z,96500.00
2022-08-10T12:38:12.058Z,96487.00
2022-08-10T12:41:00.259Z,96496.00
2022-08-10T12:44:07.013Z,96487.00
2022-08-10T12:46:40.543Z,96488.00
2022-08-10T12:49:26.187Z,96491.00
2022-08-10T12:52:35.955Z,96468.00
2022-08-10T12:55:05.869Z,96471.00
2022-08-10T12:57:37.322Z,96478.00
2022-08-10T13:00:17.050Z,96485.00
2022-08-10T13:02:48.815Z,96472.00
2022-08-10T13:05:17.205Z,96469.00
2022-08-10T13:08:24.892Z,96466.00
2022-08-10T13:10:43.364Z,96478.00
2022-08-10T13:13:15.592Z,96484.00
2022-08-10T13:15:50.674Z,96472.00
2022-08-10T13:18:29.149Z,96467.00
2022-08-10T13:21:03.197Z,96468.00
2022-08-10T13:24:03.775Z,96470.00
2022-08-10T13:27:14.464Z,96456.00
2022-08-10T13:29:36.260Z,96472.00
2022-08-10T13:32:09.818Z,96453.00
2022-08-10T13:34:45.620Z,96460.00
2022-08-10T13:37:19.623Z,96453.00
2022-08-10T13:39:59.441Z,96449.00
2022-08-10T13:42:35.819Z,96464.00
2022-08-10T13:45:23.490Z,96448.00
2022-08-10T13:47:54.875Z,96448.00
2022-08-10T13:50:33.440Z,96441.00
2022-08-10T13:53:15.625Z,96444.00
2022-08-10T13:55:54.439Z,96437.00
2022-08-10T13:58:31.282Z,96439.00
2022-08-10T14:01:10.585Z,96435.00
2022-08-10T14:03:41.723Z,96441.00
2022-08-10T14:06:17.468Z,96429.00
2022-08-10T14:08:56.563Z,96431.00
2022-08-10T14:11:24.684Z,96427.00
2022-08-10T14:14:04.684Z,96432.00
2022-08-10T14:16:33.449Z,96423.00
2022-08-10T14:19:05.463Z,96421.00
2022-08-10T14:21:39.648Z,96419.00
2022-08-10T14:24:26.074Z,96409.00
2022-08-10T14:27:09.244Z,96424.00
2022-08-10T14:29:54.996Z,96420.00
2022-08-10T14:32:27.560Z,96424.00
2022-08-10T14:36:20.244Z,96421.00
2022-08-10T14:37:50.958Z,96412.00
2022-08-10T14:40:21.496Z,96414.00
2022-08-10T14:43:04.767Z,96408.00
2022-08-10T14:45:36.280Z,96398.00
2022-08-10T14:48:31.777Z,96402.00
2022-08-10T14:51:02.453Z,96404.00
2022-08-10T14:53:35.153Z,96409.00
2022-08-10T14:56:15.792Z,96402.00
2022-08-10T14:59:10.623Z,96403.00
2022-08-10T15:02:00.852Z,96402.00
2022-08-10T15:04:32.141Z,96395.00
2022-08-10T15:07:20.471Z,96394.00
2022-08-10T15:10:00.208Z,96382.00
2022-08-10T15:12:38.811Z,96385.00
2022-08-10T15:15:11.240Z,96388.00
2022-08-10T15:17:50.352Z,96393.00
2022-08-10T15:20:24.491Z,96385.00
2022-08-10T15:23:00.927Z,96384.00
2022-08-10T15:25:30.102Z,96382.00
2022-08-10T15:28:05.469Z,96379.00
2022-08-10T15:30:42.993Z,96381.00
2022-08-10T15:34:02.232Z,96376.00
2022-08-10T15:36:41.968Z,96367.00
2022-08-10T15:40:21.733Z,96384.00
2022-08-10T15:42:25.028Z,96382.00
2022-08-10T15:44:55.104Z,96379.00
2022-08-10T15:47:51.932Z,96379.00
2022-08-10T15:50:41.869Z,96372.00
2022-08-10T15:53:27.678Z,96372.00
2022-08-10T15:56:05.607Z,96374.00
2022-08-10T15:58:49.203Z,96369.00
2022-08-10T16:02:12.702Z,96367.00
2022-08-10T16:04:35.576Z,96372.00
2022-08-10T16:07:19.232Z,96363.00
2022-08-10T16:10:23.156Z,96360.00
2022-08-10T16:12:59.315Z,96366.00
2022-08-10T16:15:30.700Z,96355.00
2022-08-10T16:18:04.886Z,96363.00
2022-08-10T16:20:53.216Z,96355.00
2022-08-10T16:23:29.960Z,96360.00
2022-08-10T16:26:15.182Z,96358.00
2022-08-10T16:29:00.098Z,96358.00
2022-08-10T16:31:32.831Z,96358.00
2022-08-10T16:34:18.865Z,96362.00
2022-08-10T16:36:56.719Z,96354.00
2022-08-10T16:39:59.458Z,96353.00
2022-08-10T16:42:21.609Z,96355.00
2022-08-10T16:45:10.590Z,96359.00
2022-08-10T16:47:45.635Z,96352.00
2022-08-10T16:50:17.677Z,96357.00
2022-08-10T16:52:49.841Z,96349.00
2022-08-10T16:55:24.559Z,96345.00
2022-08-10T16:58:13.062Z,96343.00
2022-08-10T17:00:43.086Z,96347.00
2022-08-10T17:04:05.622Z,96345.00
2022-08-10T17:06:11.878Z,96339.00
2022-08-10T17:08:53.165Z,96336.00
2022-08-10T17:11:24.406Z,96338.00
2022-08-10T17:13:57.490Z,96342.00
2022-08-10T17:16:26.680Z,96337.00
2022-08-10T17:18:57.025Z,96333.00
2022-08-10T17:21:35.553Z,96334.00
2022-08-10T17:24:05.028Z,96334.00
2022-08-10T17:26:37.636Z,96336.00
2022-08-10T17:29:53.346Z,96337.00
2022-08-10T17:32:17.993Z,96341.00
2022-08-10T17:34:50.388Z,96336.00
2022-08-10T17:37:22.386Z,96342.00
2022-08-10T17:40:16.327Z,96339.00
2022-08-10T17:42:47.559Z,96338.00
2022-08-10T17:45:47.816Z,96336.00
2022-08-10T17:48:10.489Z,96340.00
2022-08-10T17:50:41.251Z,96341.00
2022-08-10T17:53:22.691Z,96339.00
2022-08-10T17:55:56.121Z,96346.00
2022-08-10T17:58:27.952Z,96340.00
2022-08-10T18:01:40.507Z,96338.00
2022-08-10T18:03:58.517Z,96339.00
2022-08-10T18:06:27.754Z,96343.00
2022-08-10T18:09:12.585Z,96345.00
2022-08-10T18:11:48.258Z,96349.00
2022-08-10T18:14:17.113Z,96350.00
2022-08-10T18:16:45.674Z,96348.00
2022-08-10T18:19:16.379Z,96351.00
2022-08-10T18:21:47.949Z,96354.00
2022-08-10T18:24:21.325Z,96352.00
2022-08-10T18:26:52.994Z,96352.00
2022-08-10T18:29:24.560Z,96351.00
2022-08-10T18:31:59.637Z,96351.00
2022-08-10T18:34:29.418Z,96364.00
2022-08-10T18:36:57.616Z,96362.00
2022-08-10T18:39:30.061Z,96366.00
2022-08-10T18:42:06.463Z,96369.00
2022-08-10T18:44:42.663Z,96371.00
2022-08-10T18:47:16.428Z,96379.00
2022-08-10T18:50:02.145Z,96377.00
2022-08-10T18:52:34.127Z,96383.00
2022-08-10T18:55:27.110Z,96384.00
2022-08-10T18:58:40.701Z,96390.00
2022-08-10T19:01:38.224Z,96387.00
2022-08-10T19:04:42.114Z,96389.00
2022-08-10T19:07:09.220Z,96395.00
2022-08-10T19:09:54.588Z,96396.00
2022-08-10T19:12:42.965Z,96404.00
2022-08-10T19:15:44.847Z,96404.00
2022-08-10T19:18:38.463Z,96401.00
2022-08-10T19:21:32.625Z,96394.00
2022-08-10T19:24:20.140Z,96401.00
2022-08-10T19:27:10.333Z,96407.00
2022-08-10T19:30:08.501Z,96400.00
2022-08-10T19:33:01.771Z,96404.00
2022-08-10T19:36:02.940Z,96409.00
2022-08-10T19:39:03.124Z,96411.00
2022-08-10T19:41:45.406Z,96406.00
2022-08-10T19:44:43.275Z,96409.00
2022-08-10T19:47:31.201Z,96414.00
2022-08-10T19:50:15.829Z,96415.00
2022-08-10T19:53:25.252Z,96417.00
2022-08-10T19:56:34.999Z,96414.00
2022-08-10T20:00:17.317Z,96417.00
2022-08-10T20:02:32.784Z,96415.00
2022-08-10T20:05:31.975Z,96418.00
2022-08-10T20:08:28.118Z,96422.00
2022-08-10T20:11:44.346Z,96420.00
2022-08-10T20:14:38.000Z,96419.00
2022-08-10T20:17:15.403Z,96421.00
2022-08-10T20:19:53.866Z,96415.00
2022-08-10T20:22:49.640Z,96415.00
2022-08-10T20:25:25.004Z,96408.00
2022-08-10T20:28:19.741Z,96416.00
2022-08-10T20:31:06.013Z,96416.00
2022-08-10T20:33:42.398Z,96413.00
2022-08-10T20:36:27.747Z,96413.00
2022-08-10T20:39:03.735Z,96415.00
2022-08-10T20:42:08.515Z,96416.00
2022-08-10T20:44:59.229Z,96409.00
2022-08-10T20:48:01.973Z,96410.00
2022-08-10T20:50:43.276Z,96410.00
2022-08-10T20:53:15.016Z,96404.00
2022-08-10T20:56:32.956Z,96403.00
2022-08-10T20:59:18.901Z,96400.00
2022-08-10T21:02:06.163Z,96398.00
2022-08-10T21:05:15.675Z,96403.00
2022-08-10T21:08:16.638Z,96394.00
2022-08-10T21:11:17.874Z,96398.00
2022-08-10T21:14:03.066Z,96396.00
2022-08-10T21:17:17.697Z,96397.00
2022-08-10T21:20:30.539Z,96395.00
2022-08-10T21:23:05.376Z,96397.00
2022-08-10T21:26:09.128Z,96392.00
2022-08-10T21:29:39.632Z,96401.00
2022-08-10T21:32:23.435Z,96402.00
2022-08-10T21:35:37.104Z,96402.00
2022-08-10T21:38:54.293Z,96398.00
2022-08-10T21:42:02.737Z,96393.00
2022-08-10T21:44:54.033Z,96392.00
2022-08-10T21:48:07.056Z,96389.00
2022-08-10T21:51:16.450Z,96392.00
2022-08-10T21:54:26.163Z,96392.00
2022-08-10T21:57:43.178Z,96390.00
2022-08-10T22:00:34.045Z,96389.00
2022-08-10T22:03:23.362Z,96385.00
2022-08-10T22:06:15.855Z,96382.00
2022-08-10T22:09:06.302Z,96382.00
2022-08-10T22:12:03.431Z,96387.00
2022-08-10T22:14:56.141Z,96386.00
2022-08-10T22:18:04.149Z,96388.00
2022-08-10T22:20:55.432Z,96390.00
2022-08-10T22:23:40.987Z,96379.00
2022-08-10T22:27:00.600Z,96383.00
2022-08-10T22:30:03.633Z,96374.00
2022-08-10T22:33:01.696Z,96391.00
2022-08-10T22:36:09.148Z,96387.00
2022-08-10T22:39:13.344Z,96387.00
2022-08-10T22:42:24.326Z,96382.00
2022-08-10T22:45:13.898Z,96369.00
2022-08-10T22:48:05.433Z,96382.00
2022-08-10T22:50:34.007Z,96376.00
2022-08-10T22:53:08.690Z,96376.00
2022-08-10T22:55:58.440Z,96375.00
2022-08-10T22:58:41.081Z,96378.00
2022-08-10T23:01:42.077Z,96382.00
2022-08-10T23:04:40.229Z,96383.00
2022-08-10T23:07:20.961Z,96384.00
2022-08-10T23:10:12.105Z,96382.00
2022-08-10T23:12:44.276Z,96379.00
2022-08-10T23:15:46.034Z,96385.00
2022-08-10T23:18:51.721Z,96379.00
2022-08-10T23:21:20.999Z,96382.00
2022-08-10T23:23:49.946Z,96380.00
2022-08-10T23:26:25.288Z,96370.00
2022-08-10T23:28:59.893Z,96371.00
2022-08-10T23:32:00.978Z,96379.00
2022-08-10T23:34:34.348Z,96373.00
2022-08-10T23:37:04.520Z,96366.00
2022-08-10T23:39:39.054Z,96359.00
2022-08-10T23:42:14.819Z,96361.00
2022-08-10T23:44:50.260Z,96368.00
2022-08-10T23:47:22.314Z,96373.00
2022-08-10T23:49:54.793Z,96367.00
2022-08-10T23:52:26.760Z,96370.00
2022-08-10T23:55:08.316Z,96368.00
2022-08-10T23:57:45.159Z,96373.00
